sensor_id;sensor_type;location;lat;lon;timestamp;pressure;altitude;pressure_sealevel;temperature;humidity
47240;BME280;32978;53.586;10.052;2023-03-26T00:03:32;100124.44;;;6.34;100.00
47240;BME280;32978;53.586;10.052;2023-03-26T00:08:28;100134.19;;;6.35;100.00
47240;BME280;32978;53.586;10.052;2023-03-26T00:13:25;100139.09;;;6.33;100.00
47240;BME280;32978;53.586;10.052;2023-03-26T00:18:22;100147.38;;;6.28;100.00
47240;BME280;32978;53.586;10.052;2023-03-26T00:23:27;100165.97;;;6.21;100.00
47240;BME280;32978;53.586;10.052;2023-03-26T00:28:24;100175.53;;;6.18;100.00
47240;BME280;32978;53.586;10.052;2023-03-26T00:33:21;100172.31;;;6.16;100.00
47240;BME280;32978;53.586;10.052;2023-03-26T00:38:19;100178.53;;;6.17;100.00
47240;BME280;32978;53.586;10.052;2023-03-26T00:43:17;100182.38;;;6.16;100.00
47240;BME280;32978;53.586;10.052;2023-03-26T00:48:16;100190.50;;;6.16;100.00
47240;BME280;32978;53.586;10.052;2023-03-26T00:53:14;100191.03;;;6.18;100.00
47240;BME280;32978;53.586;10.052;2023-03-26T00:58:12;100194.81;;;6.17;100.00
47240;BME280;32978;53.586;10.052;2023-03-26T01:03:11;100200.84;;;6.14;100.00
47240;BME280;32978;53.586;10.052;2023-03-26T01:08:42;100202.97;;;6.17;100.00
47240;BME280;32978;53.586;10.052;2023-03-26T01:13:44;100210.69;;;6.09;100.00
47240;BME280;32978;53.586;10.052;2023-03-26T01:18:41;100222.75;;;6.03;100.00
47240;BME280;32978;53.586;10.052;2023-03-26T01:23:46;100225.03;;;5.96;100.00
47240;BME280;32978;53.586;10.052;2023-03-26T01:28:46;100246.28;;;5.75;100.00
47240;BME280;32978;53.586;10.052;2023-03-26T01:33:53;100245.75;;;5.59;100.00
47240;BME280;32978;53.586;10.052;2023-03-26T01:40:02;100237.22;;;5.47;100.00
47240;BME280;32978;53.586;10.052;2023-03-26T01:44:53;100249.28;;;5.41;100.00
47240;BME280;32978;53.586;10.052;2023-03-26T01:49:51;100250.06;;;5.41;100.00
47240;BME280;32978;53.586;10.052;2023-03-26T01:54:48;100252.91;;;5.31;100.00
47240;BME280;32978;53.586;10.052;2023-03-26T01:59:53;100251.03;;;5.32;100.00
47240;BME280;32978;53.586;10.052;2023-03-26T02:05:14;100253.66;;;5.37;100.00
47240;BME280;32978;53.586;10.052;2023-03-26T02:10:23;100251.47;;;5.39;100.00
47240;BME280;32978;53.586;10.052;2023-03-26T02:15:21;100256.31;;;5.42;100.00
47240;BME280;32978;53.586;10.052;2023-03-26T02:20:19;100243.25;;;5.44;100.00
47240;BME280;32978;53.586;10.052;2023-03-26T02:25:18;100236.81;;;5.40;100.00
47240;BME280;32978;53.586;10.052;2023-03-26T02:30:18;100243.03;;;5.40;100.00
47240;BME280;32978;53.586;10.052;2023-03-26T02:35:15;100251.47;;;5.39;100.00
47240;BME280;32978;53.586;10.052;2023-03-26T02:40:12;100248.75;;;5.39;100.00
47240;BME280;32978;53.586;10.052;2023-03-26T02:45:09;100251.38;;;5.44;100.00
47240;BME280;32978;53.586;10.052;2023-03-26T02:50:05;100257.31;;;5.46;100.00
47240;BME280;32978;53.586;10.052;2023-03-26T02:55:04;100246.63;;;5.36;100.00
47240;BME280;32978;53.586;10.052;2023-03-26T03:00:01;100265.47;;;5.27;100.00
47240;BME280;32978;53.586;10.052;2023-03-26T03:05:01;100257.31;;;5.08;100.00
47240;BME280;32978;53.586;10.052;2023-03-26T03:09:57;100263.31;;;5.05;100.00
47240;BME280;32978;53.586;10.052;2023-03-26T03:14:57;100258.50;;;5.02;100.00
47240;BME280;32978;53.586;10.052;2023-03-26T03:19:54;100257.47;;;4.98;100.00
47240;BME280;32978;53.586;10.052;2023-03-26T03:24:50;100252.63;;;4.95;100.00
47240;BME280;32978;53.586;10.052;2023-03-26T03:29:52;100247.56;;;4.88;100.00
47240;BME280;32978;53.586;10.052;2023-03-26T03:34:50;100257.63;;;4.88;100.00
47240;BME280;32978;53.586;10.052;2023-03-26T03:39:47;100251.59;;;4.91;100.00
47240;BME280;32978;53.586;10.052;2023-03-26T03:44:44;100245.66;;;4.89;100.00
47240;BME280;32978;53.586;10.052;2023-03-26T03:49:40;100256.56;;;4.83;100.00
47240;BME280;32978;53.586;10.052;2023-03-26T03:54:37;100258.31;;;4.74;100.00
47240;BME280;32978;53.586;10.052;2023-03-26T03:59:33;100257.28;;;4.70;100.00
47240;BME280;32978;53.586;10.052;2023-03-26T04:04:29;100261.31;;;4.73;100.00
47240;BME280;32978;53.586;10.052;2023-03-26T04:09:27;100255.88;;;4.73;100.00
47240;BME280;32978;53.586;10.052;2023-03-26T04:14:24;100255.59;;;4.74;100.00
47240;BME280;32978;53.586;10.052;2023-03-26T04:19:20;100252.91;;;4.74;100.00
47240;BME280;32978;53.586;10.052;2023-03-26T04:24:17;100239.72;;;4.68;100.00
47240;BME280;32978;53.586;10.052;2023-03-26T04:29:14;100241.25;;;4.50;100.00
47240;BME280;32978;53.586;10.052;2023-03-26T04:34:20;100236.19;;;4.43;100.00
47240;BME280;32978;53.586;10.052;2023-03-26T04:39:20;100243.00;;;4.40;100.00
47240;BME280;32978;53.586;10.052;2023-03-26T04:44:24;100241.06;;;4.46;100.00
47240;BME280;32978;53.586;10.052;2023-03-26T04:49:21;100237.56;;;4.40;100.00
47240;BME280;32978;53.586;10.052;2023-03-26T04:54:19;100234.84;;;4.46;100.00
47240;BME280;32978;53.586;10.052;2023-03-26T04:59:21;100239.75;;;4.38;100.00
47240;BME280;32978;53.586;10.052;2023-03-26T05:04:21;100234.00;;;4.21;100.00
47240;BME280;32978;53.586;10.052;2023-03-26T05:09:18;100230.66;;;4.05;100.00
47240;BME280;32978;53.586;10.052;2023-03-26T05:14:15;100228.34;;;3.93;100.00
47240;BME280;32978;53.586;10.052;2023-03-26T05:19:12;100243.28;;;3.86;100.00
47240;BME280;32978;53.586;10.052;2023-03-26T05:24:08;100243.50;;;3.89;100.00
47240;BME280;32978;53.586;10.052;2023-03-26T05:29:04;100246.31;;;4.08;100.00
47240;BME280;32978;53.586;10.052;2023-03-26T05:34:01;100244.38;;;4.14;100.00
47240;BME280;32978;53.586;10.052;2023-03-26T05:38:58;100248.88;;;4.24;100.00
47240;BME280;32978;53.586;10.052;2023-03-26T05:43:54;100253.47;;;4.23;100.00
47240;BME280;32978;53.586;10.052;2023-03-26T05:48:51;100258.38;;;4.21;100.00
47240;BME280;32978;53.586;10.052;2023-03-26T05:53:48;100252.91;;;4.26;100.00
47240;BME280;32978;53.586;10.052;2023-03-26T05:58:44;100267.81;;;4.24;100.00
47240;BME280;32978;53.586;10.052;2023-03-26T06:03:42;100266.72;;;4.25;100.00
47240;BME280;32978;53.586;10.052;2023-03-26T06:08:48;100267.41;;;4.35;100.00
47240;BME280;32978;53.586;10.052;2023-03-26T06:13:58;100256.13;;;4.28;100.00
47240;BME280;32978;53.586;10.052;2023-03-26T06:18:55;100268.47;;;4.39;100.00
47240;BME280;32978;53.586;10.052;2023-03-26T06:23:53;100269.06;;;4.36;100.00
47240;BME280;32978;53.586;10.052;2023-03-26T06:28:50;100277.09;;;4.41;100.00
47240;BME280;32978;53.586;10.052;2023-03-26T06:33:46;100279.81;;;4.41;100.00
47240;BME280;32978;53.586;10.052;2023-03-26T06:38:43;100280.78;;;4.51;100.00
47240;BME280;32978;53.586;10.052;2023-03-26T06:43:40;100282.78;;;4.64;100.00
47240;BME280;32978;53.586;10.052;2023-03-26T06:48:37;100291.75;;;4.64;100.00
47240;BME280;32978;53.586;10.052;2023-03-26T06:53:34;100285.22;;;4.66;100.00
47240;BME280;32978;53.586;10.052;2023-03-26T06:58:30;100282.97;;;4.73;100.00
47240;BME280;32978;53.586;10.052;2023-03-26T07:03:27;100290.88;;;4.69;100.00
47240;BME280;32978;53.586;10.052;2023-03-26T07:08:23;100289.84;;;4.65;100.00
47240;BME280;32978;53.586;10.052;2023-03-26T07:13:21;100285.41;;;4.74;100.00
47240;BME280;32978;53.586;10.052;2023-03-26T07:18:18;100277.78;;;4.76;100.00
47240;BME280;32978;53.586;10.052;2023-03-26T07:23:14;100272.03;;;4.83;100.00
47240;BME280;32978;53.586;10.052;2023-03-26T07:28:38;100262.38;;;4.53;100.00
47240;BME280;32978;53.586;10.052;2023-03-26T07:45:18;100260.63;;;4.62;100.00
47240;BME280;32978;53.586;10.052;2023-03-26T07:50:13;100271.91;;;4.69;100.00
47240;BME280;32978;53.586;10.052;2023-03-26T07:55:15;100263.16;;;4.77;100.00
47240;BME280;32978;53.586;10.052;2023-03-26T08:05:56;100271.66;;;4.90;100.00
47240;BME280;32978;53.586;10.052;2023-03-26T08:16:36;100273.44;;;5.18;100.00
47240;BME280;32978;53.586;10.052;2023-03-26T08:22:18;100275.41;;;5.13;100.00
47240;BME280;32978;53.586;10.052;2023-03-26T08:27:37;100267.88;;;5.28;100.00
47240;BME280;32978;53.586;10.052;2023-03-26T08:32:35;100265.69;;;5.31;100.00
47240;BME280;32978;53.586;10.052;2023-03-26T08:37:31;100264.44;;;5.42;100.00
47240;BME280;32978;53.586;10.052;2023-03-26T08:42:48;100278.28;;;5.59;100.00
47240;BME280;32978;53.586;10.052;2023-03-26T09:35:54;100261.00;;;6.76;100.00
47240;BME280;32978;53.586;10.052;2023-03-26T09:46:48;100261.13;;;6.43;100.00
47240;BME280;32978;53.586;10.052;2023-03-26T09:52:09;100261.00;;;6.90;100.00
47240;BME280;32978;53.586;10.052;2023-03-26T10:02:41;100277.72;;;6.69;100.00
47240;BME280;32978;53.586;10.052;2023-03-26T10:07:55;100274.50;;;6.81;100.00
47240;BME280;32978;53.586;10.052;2023-03-26T10:13:11;100277.28;;;8.39;100.00
47240;BME280;32978;53.586;10.052;2023-03-26T10:34:03;100257.34;;;8.52;100.00
47240;BME280;32978;53.586;10.052;2023-03-26T10:39:45;100266.72;;;8.06;100.00
47240;BME280;32978;53.586;10.052;2023-03-26T10:55:48;100266.38;;;8.70;100.00
47240;BME280;32978;53.586;10.052;2023-03-26T11:00:54;100268.41;;;8.47;100.00
47240;BME280;32978;53.586;10.052;2023-03-26T11:10:55;100259.91;;;9.23;100.00
47240;BME280;32978;53.586;10.052;2023-03-26T11:16:05;100275.47;;;9.58;100.00
47240;BME280;32978;53.586;10.052;2023-03-26T11:21:10;100259.28;;;9.70;100.00
47240;BME280;32978;53.586;10.052;2023-03-26T11:36:36;100265.84;;;9.69;100.00
47240;BME280;32978;53.586;10.052;2023-03-26T11:41:35;100263.94;;;10.43;100.00
47240;BME280;32978;53.586;10.052;2023-03-26T11:46:37;100259.09;;;11.29;100.00
47240;BME280;32978;53.586;10.052;2023-03-26T11:51:36;100264.19;;;11.93;100.00
47240;BME280;32978;53.586;10.052;2023-03-26T11:56:49;100267.84;;;11.43;100.00
47240;BME280;32978;53.586;10.052;2023-03-26T12:12:37;100257.44;;;12.98;87.91
47240;BME280;32978;53.586;10.052;2023-03-26T12:17:36;100257.53;;;13.54;82.82
47240;BME280;32978;53.586;10.052;2023-03-26T12:22:35;100253.44;;;13.48;86.26
47240;BME280;32978;53.586;10.052;2023-03-26T12:27:32;100243.31;;;14.40;81.75
47240;BME280;32978;53.586;10.052;2023-03-26T12:32:32;100247.47;;;14.02;81.14
47240;BME280;32978;53.586;10.052;2023-03-26T12:37:41;100248.13;;;14.12;73.33
47240;BME280;32978;53.586;10.052;2023-03-26T12:42:39;100242.16;;;15.63;70.61
47240;BME280;32978;53.586;10.052;2023-03-26T12:47:58;100231.41;;;15.39;74.08
47240;BME280;32978;53.586;10.052;2023-03-26T12:53:02;100258.88;;;14.32;80.00
47240;BME280;32978;53.586;10.052;2023-03-26T13:08:41;100245.50;;;17.44;55.95
47240;BME280;32978;53.586;10.052;2023-03-26T13:18:55;100236.16;;;16.69;56.99
47240;BME280;32978;53.586;10.052;2023-03-26T13:24:10;100238.19;;;18.38;48.55
47240;BME280;32978;53.586;10.052;2023-03-26T13:29:30;100236.78;;;17.76;56.62
47240;BME280;32978;53.586;10.052;2023-03-26T13:39:53;100242.56;;;16.77;53.79
47240;BME280;32978;53.586;10.052;2023-03-26T13:50:06;100237.19;;;14.94;65.56
47240;BME280;32978;53.586;10.052;2023-03-26T14:00:16;100241.84;;;14.59;66.38
47240;BME280;32978;53.586;10.052;2023-03-26T14:05:23;100248.44;;;13.38;70.09
47240;BME280;32978;53.586;10.052;2023-03-26T14:10:25;100249.75;;;13.56;75.06
47240;BME280;32978;53.586;10.052;2023-03-26T14:15:29;100244.25;;;13.84;72.91
47240;BME280;32978;53.586;10.052;2023-03-26T14:41:50;100252.47;;;14.44;67.06
47240;BME280;32978;53.586;10.052;2023-03-26T14:52:10;100238.81;;;14.64;69.72
47240;BME280;32978;53.586;10.052;2023-03-26T15:08:25;100247.53;;;13.34;77.54
47240;BME280;32978;53.586;10.052;2023-03-26T15:40:48;100261.09;;;12.40;83.31
47240;BME280;32978;53.586;10.052;2023-03-26T15:45:51;100264.72;;;13.06;75.00
47240;BME280;32978;53.586;10.052;2023-03-26T15:51:02;100270.22;;;12.94;72.47
47240;BME280;32978;53.586;10.052;2023-03-26T15:56:33;100264.31;;;12.67;73.62
47240;BME280;32978;53.586;10.052;2023-03-26T16:01:48;100267.78;;;11.85;76.01
47240;BME280;32978;53.586;10.052;2023-03-26T16:07:29;100265.91;;;12.68;73.70
47240;BME280;32978;53.586;10.052;2023-03-26T16:54:17;100305.75;;;10.26;88.88
47240;BME280;32978;53.586;10.052;2023-03-26T17:00:02;100319.31;;;9.53;96.27
47240;BME280;32978;53.586;10.052;2023-03-26T17:05:16;100323.13;;;9.17;100.00
47240;BME280;32978;53.586;10.052;2023-03-26T17:10:46;100332.47;;;9.59;100.00
47240;BME280;32978;53.586;10.052;2023-03-26T17:15:54;100332.28;;;9.30;100.00
47240;BME280;32978;53.586;10.052;2023-03-26T17:26:19;100350.44;;;8.85;100.00
47240;BME280;32978;53.586;10.052;2023-03-26T17:31:38;100350.97;;;8.56;100.00
47240;BME280;32978;53.586;10.052;2023-03-26T17:36:40;100357.22;;;8.34;100.00
47240;BME280;32978;53.586;10.052;2023-03-26T17:41:52;100362.47;;;8.31;100.00
47240;BME280;32978;53.586;10.052;2023-03-26T17:46:50;100370.41;;;8.18;100.00
47240;BME280;32978;53.586;10.052;2023-03-26T17:52:15;100376.13;;;8.08;100.00
47240;BME280;32978;53.586;10.052;2023-03-26T17:57:19;100383.44;;;8.21;100.00
47240;BME280;32978;53.586;10.052;2023-03-26T18:02:22;100387.66;;;7.69;100.00
47240;BME280;32978;53.586;10.052;2023-03-26T18:17:47;100406.75;;;7.00;100.00
47240;BME280;32978;53.586;10.052;2023-03-26T18:22:44;100408.94;;;6.84;100.00
47240;BME280;32978;53.586;10.052;2023-03-26T18:27:41;100414.22;;;6.94;100.00
47240;BME280;32978;53.586;10.052;2023-03-26T18:32:48;100425.06;;;6.80;100.00
47240;BME280;32978;53.586;10.052;2023-03-26T18:37:48;100431.94;;;6.59;100.00
47240;BME280;32978;53.586;10.052;2023-03-26T18:42:56;100447.19;;;6.73;100.00
47240;BME280;32978;53.586;10.052;2023-03-26T18:47:56;100448.75;;;6.61;100.00
47240;BME280;32978;53.586;10.052;2023-03-26T18:52:56;100452.16;;;6.52;100.00
47240;BME280;32978;53.586;10.052;2023-03-26T18:57:55;100456.91;;;6.61;100.00
47240;BME280;32978;53.586;10.052;2023-03-26T19:03:21;100470.38;;;6.33;100.00
47240;BME280;32978;53.586;10.052;2023-03-26T19:08:20;100484.75;;;6.15;100.00
47240;BME280;32978;53.586;10.052;2023-03-26T19:13:19;100486.72;;;5.90;100.00
47240;BME280;32978;53.586;10.052;2023-03-26T19:18:18;100487.66;;;5.80;100.00
47240;BME280;32978;53.586;10.052;2023-03-26T19:23:25;100489.59;;;5.56;100.00
47240;BME280;32978;53.586;10.052;2023-03-26T19:28:34;100488.69;;;5.41;100.00
47240;BME280;32978;53.586;10.052;2023-03-26T19:33:34;100509.94;;;5.29;100.00
47240;BME280;32978;53.586;10.052;2023-03-26T19:38:50;100519.91;;;5.34;100.00
47240;BME280;32978;53.586;10.052;2023-03-26T19:43:54;100519.50;;;5.21;100.00
47240;BME280;32978;53.586;10.052;2023-03-26T19:48:55;100525.31;;;5.10;100.00
47240;BME280;32978;53.586;10.052;2023-03-26T19:53:54;100537.66;;;4.97;100.00
47240;BME280;32978;53.586;10.052;2023-03-26T19:58:54;100542.84;;;5.17;100.00
47240;BME280;32978;53.586;10.052;2023-03-26T20:03:54;100547.66;;;4.96;100.00
47240;BME280;32978;53.586;10.052;2023-03-26T20:08:54;100553.91;;;4.97;100.00
47240;BME280;32978;53.586;10.052;2023-03-26T20:13:50;100566.34;;;4.98;100.00
47240;BME280;32978;53.586;10.052;2023-03-26T20:18:47;100561.94;;;4.73;100.00
47240;BME280;32978;53.586;10.052;2023-03-26T20:23:45;100573.63;;;4.68;100.00
47240;BME280;32978;53.586;10.052;2023-03-26T20:28:42;100580.09;;;4.72;100.00
47240;BME280;32978;53.586;10.052;2023-03-26T20:33:44;100583.47;;;4.54;100.00
47240;BME280;32978;53.586;10.052;2023-03-26T20:38:42;100595.16;;;4.44;100.00
47240;BME280;32978;53.586;10.052;2023-03-26T20:43:39;100602.16;;;4.50;100.00
47240;BME280;32978;53.586;10.052;2023-03-26T20:48:38;100605.00;;;4.30;100.00
47240;BME280;32978;53.586;10.052;2023-03-26T20:53:35;100615.34;;;4.12;100.00
47240;BME280;32978;53.586;10.052;2023-03-26T20:58:32;100612.41;;;4.04;100.00
47240;BME280;32978;53.586;10.052;2023-03-26T21:03:29;100617.28;;;3.96;100.00
47240;BME280;32978;53.586;10.052;2023-03-26T21:08:25;100623.84;;;3.80;100.00
47240;BME280;32978;53.586;10.052;2023-03-26T21:13:38;100633.06;;;3.64;100.00
47240;BME280;32978;53.586;10.052;2023-03-26T21:18:35;100640.94;;;3.60;100.00
47240;BME280;32978;53.586;10.052;2023-03-26T21:23:39;100651.50;;;3.46;100.00
47240;BME280;32978;53.586;10.052;2023-03-26T21:28:47;100650.94;;;3.34;100.00
47240;BME280;32978;53.586;10.052;2023-03-26T21:33:45;100655.00;;;3.31;100.00
47240;BME280;32978;53.586;10.052;2023-03-26T21:38:43;100665.81;;;3.31;100.00
47240;BME280;32978;53.586;10.052;2023-03-26T21:43:40;100675.28;;;3.24;100.00
47240;BME280;32978;53.586;10.052;2023-03-26T21:48:36;100669.03;;;3.08;100.00
47240;BME280;32978;53.586;10.052;2023-03-26T21:53:33;100681.19;;;2.95;100.00
47240;BME280;32978;53.586;10.052;2023-03-26T22:03:50;100705.44;;;2.69;100.00
47240;BME280;32978;53.586;10.052;2023-03-26T22:08:50;100704.34;;;2.70;100.00
47240;BME280;32978;53.586;10.052;2023-03-26T22:13:46;100707.03;;;2.65;100.00
47240;BME280;32978;53.586;10.052;2023-03-26T22:18:43;100705.91;;;2.51;100.00
47240;BME280;32978;53.586;10.052;2023-03-26T22:23:39;100722.06;;;2.41;100.00
47240;BME280;32978;53.586;10.052;2023-03-26T22:28:36;100726.31;;;2.31;100.00
47240;BME280;32978;53.586;10.052;2023-03-26T22:33:32;100736.06;;;2.33;100.00
47240;BME280;32978;53.586;10.052;2023-03-26T22:38:31;100751.19;;;2.39;100.00
47240;BME280;32978;53.586;10.052;2023-03-26T22:43:28;100761.97;;;2.39;100.00
47240;BME280;32978;53.586;10.052;2023-03-26T22:48:24;100770.22;;;2.17;100.00
47240;BME280;32978;53.586;10.052;2023-03-26T22:53:21;100778.50;;;2.05;100.00
47240;BME280;32978;53.586;10.052;2023-03-26T22:58:18;100778.56;;;2.15;100.00
47240;BME280;32978;53.586;10.052;2023-03-26T23:03:15;100790.03;;;1.95;100.00
47240;BME280;32978;53.586;10.052;2023-03-26T23:08:11;100798.16;;;2.00;100.00
47240;BME280;32978;53.586;10.052;2023-03-26T23:13:08;100790.25;;;1.88;100.00
47240;BME280;32978;53.586;10.052;2023-03-26T23:18:04;100798.06;;;1.90;100.00
47240;BME280;32978;53.586;10.052;2023-03-26T23:23:02;100801.59;;;1.91;100.00
47240;BME280;32978;53.586;10.052;2023-03-26T23:27:58;100814.50;;;1.83;100.00
47240;BME280;32978;53.586;10.052;2023-03-26T23:32:55;100817.97;;;1.79;100.00
47240;BME280;32978;53.586;10.052;2023-03-26T23:37:52;100820.25;;;1.65;100.00
47240;BME280;32978;53.586;10.052;2023-03-26T23:42:49;100831.50;;;1.57;100.00
47240;BME280;32978;53.586;10.052;2023-03-26T23:47:45;100843.28;;;1.51;100.00
47240;BME280;32978;53.586;10.052;2023-03-26T23:52:42;100851.94;;;1.53;100.00
47240;BME280;32978;53.586;10.052;2023-03-26T23:57:40;100857.03;;;1.49;100.00
